createdAt,value
2019-03-22T00:01:33.822Z,149.82
2019-03-22T00:04:01.866Z,149.90
2019-03-22T00:06:29.579Z,149.87
2019-03-22T00:08:57.152Z,150.60
2019-03-22T00:11:25.174Z,150.90
2019-03-22T00:13:52.950Z,150.93
2019-03-22T00:16:21.934Z,151.45
2019-03-22T00:18:49.611Z,151.12
2019-03-22T00:21:17.778Z,150.32
2019-03-22T00:23:45.464Z,150.35
2019-03-22T00:26:13.170Z,149.62
2019-03-22T00:28:41.334Z,150.20
2019-03-22T00:31:08.947Z,149.70
2019-03-22T00:33:36.545Z,150.78
2019-03-22T00:36:04.115Z,153.57
2019-03-22T00:38:31.658Z,151.85
2019-03-22T00:40:59.400Z,152.97
2019-03-22T00:43:27.165Z,153.80
2019-03-22T00:45:54.703Z,153.50
2019-03-22T00:48:24.841Z,152.20
2019-03-22T00:50:51.893Z,150.05
2019-03-22T00:53:19.490Z,149.77
2019-03-22T00:55:49.712Z,149.93
2019-03-22T00:58:17.301Z,150.27
2019-03-22T01:00:44.881Z,151.07
2019-03-22T01:03:12.575Z,150.25
2019-03-22T01:05:40.615Z,150.50
2019-03-22T01:08:08.189Z,150.53
2019-03-22T01:10:36.322Z,150.78
2019-03-22T01:13:03.854Z,151.50
2019-03-22T01:15:31.497Z,151.53
2019-03-22T01:17:59.098Z,150.65
2019-03-22T01:20:27.068Z,150.00
2019-03-22T01:22:54.747Z,149.68
2019-03-22T01:25:22.943Z,150.57
2019-03-22T01:27:50.637Z,150.20
2019-03-22T01:30:18.692Z,150.40
2019-03-22T01:32:46.928Z,150.35
2019-03-22T01:35:14.814Z,148.35
2019-03-22T01:37:42.583Z,149.25
2019-03-22T01:40:10.623Z,148.75
2019-03-22T01:42:38.177Z,149.02
2019-03-22T01:45:07.474Z,149.80
2019-03-22T01:47:35.509Z,148.80
2019-03-22T01:50:03.802Z,148.75
2019-03-22T01:52:31.489Z,148.38
2019-03-22T01:54:59.211Z,148.75
2019-03-22T01:57:26.784Z,149.60
2019-03-22T01:59:54.361Z,150.18
2019-03-22T02:02:22.693Z,148.70
2019-03-22T02:04:50.470Z,149.15
2019-03-22T02:07:18.100Z,151.18
2019-03-22T02:09:45.719Z,148.82
2019-03-22T02:12:13.419Z,148.53
2019-03-22T02:14:41.183Z,147.35
2019-03-22T02:17:09.200Z,148.30
2019-03-22T02:19:36.766Z,148.43
2019-03-22T02:22:04.538Z,146.95
2019-03-22T02:24:32.176Z,147.10
2019-03-22T02:27:00.021Z,148.72
2019-03-22T02:29:27.644Z,149.25
2019-03-22T02:31:55.890Z,148.57
2019-03-22T02:34:23.554Z,149.20
2019-03-22T02:36:51.198Z,149.18
2019-03-22T02:39:18.880Z,148.62
2019-03-22T02:41:46.590Z,148.78
2019-03-22T02:44:14.243Z,149.38
2019-03-22T02:46:42.362Z,149.23
2019-03-22T02:49:09.914Z,149.72
2019-03-22T02:51:38.895Z,149.12
2019-03-22T02:54:06.896Z,147.60
2019-03-22T02:56:34.550Z,149.00
2019-03-22T02:59:02.083Z,149.23
2019-03-22T03:01:30.313Z,149.87
2019-03-22T03:03:58.001Z,148.53
2019-03-22T03:06:25.549Z,148.17
2019-03-22T03:08:54.894Z,149.00
2019-03-22T03:11:22.606Z,148.97
2019-03-22T03:13:50.355Z,147.87
2019-03-22T03:16:17.947Z,150.42
2019-03-22T03:18:45.588Z,147.98
2019-03-22T03:21:13.163Z,149.85
2019-03-22T03:23:41.062Z,152.57
2019-03-22T03:26:08.689Z,148.90
2019-03-22T03:28:37.913Z,152.15
2019-03-22T03:31:06.678Z,148.85
2019-03-22T03:33:34.215Z,149.15
2019-03-22T03:36:02.115Z,149.05
2019-03-22T03:38:29.842Z,147.62
2019-03-22T03:40:57.388Z,148.97
2019-03-22T03:43:25.420Z,150.50
2019-03-22T03:45:53.026Z,150.65
2019-03-22T03:48:20.591Z,150.07
2019-03-22T03:50:48.712Z,150.60
2019-03-22T03:53:16.308Z,149.38
2019-03-22T03:55:44.009Z,149.95
2019-03-22T03:58:11.707Z,150.90
2019-03-22T04:00:40.476Z,149.77
2019-03-22T04:03:08.228Z,150.65
2019-03-22T04:05:36.494Z,150.03
2019-03-22T04:08:04.717Z,150.07
2019-03-22T04:10:32.308Z,147.62
2019-03-22T04:12:59.958Z,149.75
2019-03-22T04:15:27.903Z,150.10
2019-03-22T04:17:55.884Z,149.80
2019-03-22T04:20:23.432Z,150.75
2019-03-22T04:22:51.105Z,149.60
2019-03-22T04:25:18.672Z,149.75
2019-03-22T04:27:46.445Z,149.77
2019-03-22T04:30:14.599Z,148.40
2019-03-22T04:32:43.266Z,148.57
2019-03-22T04:35:11.011Z,147.98
2019-03-22T04:37:38.713Z,147.35
2019-03-22T04:40:27.986Z,150.40
2019-03-22T04:42:56.085Z,148.35
2019-03-22T04:45:25.624Z,149.70
2019-03-22T04:47:59.115Z,149.47
2019-03-22T04:50:27.959Z,150.25
2019-03-22T04:52:56.412Z,148.82
2019-03-22T04:55:24.821Z,148.53
2019-03-22T04:57:53.554Z,149.18
2019-03-22T05:00:22.131Z,149.68
2019-03-22T05:02:51.818Z,148.90
2019-03-22T05:05:19.869Z,148.97
2019-03-22T05:07:48.941Z,152.32
2019-03-22T05:10:17.183Z,150.32
2019-03-22T05:12:46.219Z,150.68
2019-03-22T05:15:17.884Z,151.57
2019-03-22T05:17:46.518Z,149.53
2019-03-22T05:20:16.051Z,149.23
2019-03-22T05:22:44.979Z,150.45
2019-03-22T05:25:13.643Z,148.90
2019-03-22T05:27:44.032Z,147.02
2019-03-22T05:30:36.146Z,149.02
2019-03-22T05:33:03.693Z,148.55
2019-03-22T05:35:31.342Z,147.28
2019-03-22T05:37:59.432Z,148.00
2019-03-22T05:40:26.993Z,148.32
2019-03-22T05:42:54.573Z,146.68
2019-03-22T05:45:22.250Z,146.95
2019-03-22T05:47:50.034Z,149.90
2019-03-22T05:50:17.655Z,148.40
2019-03-22T05:52:45.428Z,148.55
2019-03-22T05:55:13.463Z,150.12
2019-03-22T05:57:41.081Z,149.27
2019-03-22T06:00:08.936Z,150.68
2019-03-22T06:02:36.825Z,149.60
2019-03-22T06:05:05.170Z,149.53
2019-03-22T06:07:32.790Z,150.03
2019-03-22T06:10:00.439Z,151.20
2019-03-22T06:12:28.122Z,151.25
2019-03-22T06:14:55.729Z,153.30
2019-03-22T06:17:23.371Z,150.10
2019-03-22T06:19:51.120Z,151.85
2019-03-22T06:22:19.325Z,154.70
2019-03-22T06:24:47.321Z,153.18
2019-03-22T06:27:14.896Z,152.02
2019-03-22T06:29:53.749Z,151.78
2019-03-22T06:32:12.505Z,171.00
2019-03-22T06:34:40.066Z,154.93
2019-03-22T06:37:08.156Z,155.05
2019-03-22T06:39:35.958Z,156.93
2019-03-22T06:42:03.593Z,156.82
2019-03-22T06:44:31.736Z,155.82
2019-03-22T06:47:02.626Z,154.38
2019-03-22T06:49:31.513Z,156.12
2019-03-22T06:51:59.572Z,155.43
2019-03-22T06:54:32.128Z,154.93
2019-03-22T06:57:00.440Z,154.32
2019-03-22T06:59:28.626Z,154.15
2019-03-22T07:01:56.246Z,154.82
2019-03-22T07:04:23.859Z,154.78
2019-03-22T07:06:53.902Z,152.57
2019-03-22T07:09:22.185Z,158.03
2019-03-22T07:11:53.928Z,154.57
2019-03-22T07:14:26.649Z,155.35
2019-03-22T07:16:58.750Z,154.60
2019-03-22T07:19:34.591Z,156.57
2019-03-22T07:22:13.084Z,156.85
2019-03-22T07:24:40.646Z,155.95
2019-03-22T07:27:08.319Z,154.87
2019-03-22T07:29:35.986Z,154.93
2019-03-22T07:32:03.878Z,157.35
2019-03-22T07:34:31.777Z,156.52
2019-03-22T07:36:59.597Z,155.40
2019-03-22T07:39:27.236Z,155.48
2019-03-22T07:41:54.907Z,158.35
2019-03-22T07:44:22.533Z,156.18
2019-03-22T07:46:50.132Z,157.90
2019-03-22T07:49:18.553Z,159.12
2019-03-22T07:51:46.155Z,156.25
2019-03-22T07:54:13.735Z,156.60
2019-03-22T07:56:43.109Z,156.43
2019-03-22T07:59:10.789Z,157.00
2019-03-22T08:01:38.370Z,158.47
2019-03-22T08:04:07.852Z,158.63
2019-03-22T08:06:36.564Z,158.03
2019-03-22T08:09:07.005Z,157.70
2019-03-22T08:11:35.998Z,157.62
2019-03-22T08:14:03.602Z,157.30
2019-03-22T08:16:31.298Z,157.60
2019-03-22T08:19:05.447Z,157.47
2019-03-22T08:21:32.953Z,157.43
2019-03-22T08:24:01.074Z,162.05
2019-03-22T08:26:30.067Z,158.57
2019-03-22T08:28:57.841Z,160.07
2019-03-22T08:31:26.189Z,157.67
2019-03-22T08:33:53.838Z,159.52
2019-03-22T08:36:21.475Z,161.37
2019-03-22T08:38:53.217Z,159.55
2019-03-22T08:41:23.680Z,159.80
2019-03-22T08:43:58.074Z,160.22
2019-03-22T08:46:27.043Z,162.75
2019-03-22T08:48:55.080Z,162.35
2019-03-22T08:51:22.727Z,160.50
2019-03-22T08:53:55.628Z,160.82
2019-03-22T08:56:21.676Z,158.65
2019-03-22T08:58:53.035Z,158.93
2019-03-22T09:01:20.758Z,159.48
2019-03-22T09:04:02.044Z,162.55
2019-03-22T09:06:29.611Z,161.37
2019-03-22T09:08:57.266Z,161.00
2019-03-22T09:11:24.872Z,159.43
2019-03-22T09:13:53.896Z,160.12
2019-03-22T09:16:22.286Z,161.62
2019-03-22T09:18:50.214Z,161.05
2019-03-22T09:21:18.761Z,162.20
2019-03-22T09:23:48.385Z,162.18
2019-03-22T09:26:19.973Z,163.37
2019-03-22T09:28:50.051Z,173.43
2019-03-22T09:31:21.828Z,163.20
2019-03-22T09:33:54.915Z,163.97
2019-03-22T09:36:25.903Z,164.35
2019-03-22T09:38:54.382Z,163.57
2019-03-22T09:41:25.316Z,163.18
2019-03-22T09:43:52.929Z,162.22
2019-03-22T09:46:26.910Z,162.35
2019-03-22T09:48:54.461Z,161.80
2019-03-22T09:51:22.449Z,163.12
2019-03-22T09:53:50.061Z,172.50
2019-03-22T09:56:19.843Z,163.20
2019-03-22T09:58:50.195Z,164.93
2019-03-22T10:01:23.715Z,162.22
2019-03-22T10:03:47.356Z,163.57
2019-03-22T10:06:15.368Z,165.52
2019-03-22T10:08:45.495Z,165.82
2019-03-22T10:11:14.268Z,163.68
2019-03-22T10:13:44.469Z,169.50
2019-03-22T10:16:14.581Z,164.57
2019-03-22T10:18:42.266Z,165.73
2019-03-22T10:21:21.838Z,167.65
2019-03-22T10:23:45.156Z,165.90
2019-03-22T10:26:12.696Z,167.75
2019-03-22T10:28:40.470Z,163.75
2019-03-22T10:31:08.552Z,167.75
2019-03-22T10:33:36.103Z,165.20
2019-03-22T10:36:03.869Z,165.77
2019-03-22T10:38:32.332Z,166.40
2019-03-22T10:41:00.106Z,166.28
2019-03-22T10:43:27.889Z,167.93
2019-03-22T10:45:55.971Z,169.07
2019-03-22T10:48:23.601Z,167.82
2019-03-22T10:50:51.219Z,168.20
2019-03-22T10:53:18.936Z,170.65
2019-03-22T10:55:47.768Z,170.97
2019-03-22T10:59:07.754Z,168.85
2019-03-22T11:01:48.668Z,168.07
2019-03-22T11:06:36.235Z,166.60
2019-03-22T11:09:06.236Z,167.13
2019-03-22T11:11:33.946Z,169.72
2019-03-22T11:14:03.640Z,168.40
2019-03-22T11:16:31.357Z,168.45
2019-03-22T11:19:01.226Z,170.43
2019-03-22T11:21:32.664Z,172.25
2019-03-22T11:24:00.626Z,173.43
2019-03-22T11:26:35.541Z,171.05
2019-03-22T11:29:07.799Z,172.82
2019-03-22T11:31:40.067Z,171.20
2019-03-22T11:34:18.121Z,174.60
2019-03-22T11:37:02.999Z,173.70
2019-03-22T11:42:51.536Z,172.17
2019-03-22T11:45:24.611Z,171.60
2019-03-22T11:47:54.190Z,168.00
2019-03-22T11:50:23.462Z,168.95
2019-03-22T11:52:52.103Z,170.85
2019-03-22T11:55:19.706Z,172.47
2019-03-22T11:57:48.052Z,170.70
2019-03-22T12:00:25.236Z,170.05
2019-03-22T12:03:17.008Z,170.05
2019-03-22T12:06:03.235Z,171.45
2019-03-22T12:08:35.726Z,169.87
2019-03-22T12:11:03.305Z,167.50
2019-03-22T12:13:30.946Z,166.73
2019-03-22T12:16:01.089Z,171.25
2019-03-22T12:18:30.225Z,168.17
2019-03-22T12:21:11.837Z,167.05
2019-03-22T12:23:39.384Z,168.80
2019-03-22T12:26:07.043Z,168.85
2019-03-22T12:28:34.760Z,166.90
2019-03-22T12:31:02.363Z,168.15
2019-03-22T12:33:30.181Z,167.15
2019-03-22T12:35:58.176Z,167.65
2019-03-22T12:38:25.723Z,168.13
2019-03-22T12:40:53.544Z,168.43
2019-03-22T12:43:23.002Z,172.35
2019-03-22T12:45:51.418Z,166.43
2019-03-22T12:48:19.055Z,167.85
2019-03-22T12:50:46.664Z,167.40
2019-03-22T12:53:14.680Z,169.15
2019-03-22T12:55:42.259Z,167.25
2019-03-22T12:58:11.156Z,167.35
2019-03-22T13:00:38.852Z,166.07
2019-03-22T13:03:06.431Z,166.88
2019-03-22T13:05:34.043Z,165.35
2019-03-22T13:08:15.160Z,165.03
2019-03-22T13:11:10.514Z,163.00
2019-03-22T13:13:39.522Z,164.80
2019-03-22T13:16:07.150Z,164.47
2019-03-22T13:18:34.956Z,164.70
2019-03-22T13:21:04.294Z,164.90
2019-03-22T13:23:32.056Z,164.80
2019-03-22T13:25:59.771Z,160.85
2019-03-22T13:28:27.368Z,162.80
2019-03-22T13:30:55.404Z,162.10
2019-03-22T13:33:23.589Z,160.85
2019-03-22T13:35:51.190Z,163.05
2019-03-22T13:38:19.196Z,163.62
2019-03-22T13:40:51.895Z,162.22
2019-03-22T13:43:19.680Z,162.22
2019-03-22T13:45:48.664Z,162.37
2019-03-22T13:48:18.851Z,164.80
2019-03-22T13:50:46.589Z,161.28
2019-03-22T13:53:14.577Z,160.75
2019-03-22T13:55:42.692Z,162.90
2019-03-22T13:58:10.582Z,163.07
2019-03-22T14:00:38.198Z,163.03
2019-03-22T14:03:05.895Z,163.60
2019-03-22T14:05:33.475Z,163.72
2019-03-22T14:08:01.301Z,161.80
2019-03-22T14:10:33.297Z,163.25
2019-03-22T14:13:00.956Z,165.40
2019-03-22T14:15:28.753Z,161.88
2019-03-22T14:17:56.970Z,161.05
2019-03-22T14:20:25.064Z,161.80
2019-03-22T14:22:53.955Z,165.47
2019-03-22T14:25:23.809Z,162.62
2019-03-22T14:27:52.550Z,162.05
2019-03-22T14:30:22.037Z,162.88
2019-03-22T14:32:49.659Z,165.45
2019-03-22T14:35:17.264Z,166.82
2019-03-22T14:37:55.097Z,164.18
2019-03-22T14:40:45.951Z,164.80
2019-03-22T14:43:15.791Z,163.68
2019-03-22T14:45:43.454Z,165.97
2019-03-22T14:48:11.227Z,167.10
2019-03-22T14:50:39.405Z,165.80
2019-03-22T14:53:07.353Z,166.75
2019-03-22T14:55:34.930Z,166.43
2019-03-22T14:58:02.576Z,165.55
2019-03-22T15:00:30.184Z,167.18
2019-03-22T15:03:05.367Z,170.50
2019-03-22T15:05:47.314Z,165.95
2019-03-22T15:12:23.106Z,167.55
2019-03-22T15:15:14.517Z,166.55
2019-03-22T15:18:09.059Z,170.22
2019-03-22T15:20:59.266Z,170.62
2019-03-22T15:23:45.323Z,170.60
2019-03-22T15:26:45.544Z,167.50
2019-03-22T15:29:31.183Z,169.47
2019-03-22T15:32:21.022Z,173.02
2019-03-22T15:35:08.270Z,169.37
2019-03-22T15:38:11.008Z,167.62
2019-03-22T15:40:42.110Z,168.87
2019-03-22T15:43:10.201Z,169.10
2019-03-22T15:45:37.785Z,168.85
2019-03-22T15:48:05.365Z,168.25
2019-03-22T15:50:32.998Z,169.07
2019-03-22T15:53:01.366Z,171.50
2019-03-22T15:55:29.123Z,169.82
2019-03-22T15:57:56.753Z,170.40
2019-03-22T16:00:24.778Z,169.40
2019-03-22T16:02:52.920Z,167.15
2019-03-22T16:05:20.519Z,168.82
2019-03-22T16:07:48.227Z,169.30
2019-03-22T16:10:16.023Z,171.02
2019-03-22T16:12:43.940Z,169.37
2019-03-22T16:15:12.190Z,170.60
2019-03-22T16:17:39.773Z,168.43
2019-03-22T16:20:08.636Z,166.95
2019-03-22T16:22:36.317Z,167.87
2019-03-22T16:25:07.182Z,167.72
2019-03-22T16:27:35.365Z,166.20
2019-03-22T16:30:04.913Z,167.47
2019-03-22T16:32:32.565Z,167.40
2019-03-22T16:35:00.345Z,169.87
2019-03-22T16:37:28.105Z,169.85
2019-03-22T16:39:56.200Z,167.07
2019-03-22T16:42:23.843Z,168.72
2019-03-22T16:44:51.463Z,169.15
2019-03-22T16:47:19.086Z,168.10
2019-03-22T16:50:00.995Z,168.02
2019-03-22T16:52:32.874Z,166.28
2019-03-22T16:55:03.931Z,165.95
2019-03-22T16:57:34.804Z,166.62
2019-03-22T17:00:05.551Z,166.35
2019-03-22T17:02:41.823Z,167.15
2019-03-22T17:05:10.355Z,171.80
2019-03-22T17:07:38.049Z,169.95
2019-03-22T17:10:07.817Z,163.85
2019-03-22T17:12:36.887Z,168.47
2019-03-22T17:15:05.216Z,166.05
2019-03-22T17:17:34.934Z,166.03
2019-03-22T17:20:02.549Z,165.88
2019-03-22T17:22:30.199Z,166.68
2019-03-22T17:24:58.388Z,165.82
2019-03-22T17:27:26.912Z,165.00
2019-03-22T17:29:54.504Z,165.62
2019-03-22T17:32:23.038Z,166.12
2019-03-22T17:34:50.816Z,166.37
2019-03-22T17:37:18.520Z,167.13
2019-03-22T17:39:46.445Z,168.60
2019-03-22T17:42:16.423Z,164.70
2019-03-22T17:44:45.722Z,168.13
2019-03-22T17:47:13.520Z,166.22
2019-03-22T17:49:48.088Z,165.77
2019-03-22T17:52:14.517Z,165.43
2019-03-22T17:54:44.886Z,164.90
2019-03-22T17:57:18.804Z,164.37
2019-03-22T17:59:46.837Z,165.45
2019-03-22T18:02:14.548Z,165.73
2019-03-22T18:04:42.286Z,168.00
2019-03-22T18:07:10.470Z,168.45
2019-03-22T18:09:38.474Z,164.80
2019-03-22T18:12:07.145Z,165.73
2019-03-22T18:14:37.585Z,166.07
2019-03-22T18:17:05.249Z,167.40
2019-03-22T18:19:32.952Z,166.55
2019-03-22T18:22:03.708Z,163.68
2019-03-22T18:24:31.415Z,164.40
2019-03-22T18:26:59.501Z,165.37
2019-03-22T18:29:28.297Z,163.20
2019-03-22T18:31:55.853Z,165.03
2019-03-22T18:34:23.492Z,165.68
2019-03-22T18:36:51.295Z,164.52
2019-03-22T18:39:18.989Z,163.20
2019-03-22T18:41:46.970Z,165.05
2019-03-22T18:44:14.602Z,163.90
2019-03-22T18:46:42.389Z,164.65
2019-03-22T18:49:11.164Z,165.15
2019-03-22T18:51:39.711Z,164.80
2019-03-22T18:54:09.247Z,165.80
2019-03-22T18:56:36.874Z,180.75
2019-03-22T18:59:04.567Z,176.07
2019-03-22T19:01:32.195Z,171.93
2019-03-22T19:03:59.970Z,168.82
2019-03-22T19:06:28.111Z,171.02
2019-03-22T19:08:57.092Z,166.45
2019-03-22T19:11:24.676Z,165.55
2019-03-22T19:13:53.506Z,166.53
2019-03-22T19:16:21.095Z,166.62
2019-03-22T19:18:48.795Z,167.45
2019-03-22T19:21:16.415Z,173.22
2019-03-22T19:23:44.114Z,166.75
2019-03-22T19:26:12.022Z,166.20
2019-03-22T19:28:41.410Z,164.37
2019-03-22T19:31:09.117Z,164.20
2019-03-22T19:33:37.044Z,165.12
2019-03-22T19:36:04.886Z,167.25
2019-03-22T19:38:32.874Z,163.60
2019-03-22T19:41:00.522Z,161.88
2019-03-22T19:43:28.156Z,163.95
2019-03-22T19:45:56.104Z,163.50
2019-03-22T19:48:23.757Z,160.95
2019-03-22T19:50:51.440Z,162.53
2019-03-22T19:53:19.650Z,160.90
2019-03-22T19:55:48.606Z,163.62
2019-03-22T19:58:17.325Z,163.22
2019-03-22T20:00:46.344Z,161.22
2019-03-22T20:03:14.109Z,162.55
2019-03-22T20:05:41.847Z,161.50
2019-03-22T20:08:12.899Z,161.80
2019-03-22T20:10:39.295Z,160.22
2019-03-22T20:13:06.922Z,162.45
2019-03-22T20:15:35.107Z,159.70
2019-03-22T20:18:02.710Z,159.30
2019-03-22T20:20:30.318Z,160.18
2019-03-22T20:22:59.947Z,161.18
2019-03-22T20:25:27.845Z,160.95
2019-03-22T20:27:56.950Z,159.00
2019-03-22T20:30:25.104Z,162.05
2019-03-22T20:32:53.013Z,164.30
2019-03-22T20:35:20.622Z,160.82
2019-03-22T20:37:48.655Z,161.10
2019-03-22T20:40:16.693Z,161.22
2019-03-22T20:42:44.258Z,160.50
2019-03-22T20:45:23.325Z,160.57
2019-03-22T20:47:41.815Z,161.12
2019-03-22T20:50:11.565Z,159.87
2019-03-22T20:52:39.260Z,158.95
2019-03-22T20:55:08.017Z,159.82
2019-03-22T20:57:36.008Z,157.27
2019-03-22T21:00:04.802Z,159.97
2019-03-22T21:02:32.587Z,161.25
2019-03-22T21:05:00.682Z,158.68
2019-03-22T21:07:28.481Z,157.75
2019-03-22T21:09:56.135Z,158.57
2019-03-22T21:12:23.717Z,159.57
2019-03-22T21:14:51.874Z,159.52
2019-03-22T21:17:19.675Z,161.18
2019-03-22T21:19:47.492Z,158.05
2019-03-22T21:22:16.575Z,156.63
2019-03-22T21:24:44.218Z,161.22
2019-03-22T21:27:15.838Z,158.37
2019-03-22T21:29:44.361Z,158.55
2019-03-22T21:32:11.042Z,156.47
2019-03-22T21:34:39.148Z,154.78
2019-03-22T21:37:07.031Z,154.05
2019-03-22T21:39:34.746Z,155.25
2019-03-22T21:42:02.455Z,153.38
2019-03-22T21:44:30.366Z,153.95
2019-03-22T21:46:58.116Z,155.40
2019-03-22T21:49:26.340Z,155.10
2019-03-22T21:51:53.925Z,155.15
2019-03-22T21:54:23.423Z,153.80
2019-03-22T21:56:51.233Z,153.75
2019-03-22T21:59:18.854Z,154.27
2019-03-22T22:01:46.666Z,153.90
2019-03-22T22:04:14.663Z,155.32
2019-03-22T22:06:42.272Z,153.00
2019-03-22T22:09:10.043Z,153.90
2019-03-22T22:11:37.741Z,153.55
2019-03-22T22:14:05.393Z,155.67
2019-03-22T22:16:33.186Z,155.95
2019-03-22T22:19:02.173Z,155.05
2019-03-22T22:21:30.858Z,152.72
2019-03-22T22:23:58.579Z,158.80
2019-03-22T22:26:26.241Z,162.43
2019-03-22T22:28:53.924Z,161.45
2019-03-22T22:31:22.175Z,156.93
2019-03-22T22:33:49.726Z,156.80
2019-03-22T22:36:17.532Z,155.78
2019-03-22T22:38:45.187Z,156.10
2019-03-22T22:41:12.855Z,156.82
2019-03-22T22:43:41.575Z,155.30
2019-03-22T22:46:09.707Z,153.57
2019-03-22T22:48:37.768Z,155.37
2019-03-22T22:51:05.533Z,153.23
2019-03-22T22:53:33.445Z,154.82
2019-03-22T22:56:01.550Z,154.63
2019-03-22T22:58:29.360Z,153.40
2019-03-22T23:00:57.002Z,153.87
2019-03-22T23:03:26.595Z,154.40
2019-03-22T23:05:54.305Z,153.85
2019-03-22T23:08:22.360Z,152.72
2019-03-22T23:10:49.999Z,152.25
2019-03-22T23:13:21.507Z,153.80
2019-03-22T23:15:49.260Z,152.47
2019-03-22T23:18:17.040Z,154.10
2019-03-22T23:20:44.631Z,153.25
2019-03-22T23:23:12.955Z,157.57
2019-03-22T23:25:40.626Z,152.30
2019-03-22T23:28:08.390Z,153.15
2019-03-22T23:30:36.201Z,152.25
2019-03-22T23:33:03.856Z,151.30
2019-03-22T23:35:31.563Z,153.50
2019-03-22T23:37:59.759Z,152.27
2019-03-22T23:40:27.539Z,154.30
2019-03-22T23:42:55.655Z,151.72
2019-03-22T23:45:23.902Z,152.47
2019-03-22T23:47:53.015Z,154.00
2019-03-22T23:50:20.905Z,150.32
2019-03-22T23:52:48.973Z,151.47
2019-03-22T23:55:16.775Z,153.80
2019-03-22T23:57:44.565Z,154.30
